Terminal Aerodrome Forecast
Issued by NWS Dodge City, KS

Home | Current Version | Previous Version | Text Only | Print | Product List | Glossary On
Versions: 1 2 3 4 5 6 7 8 9 10 11 12 13 14 15 16 17 18 19 20
000
FTUS43 KDDC 271931 AAA
TAFDDC
TAF AMD
KDDC 271931Z 2720/2818 27013KT P6SM SCT060
     FM272300 30012KT P6SM VCTS SCT070CB
     FM280100 24007KT P6SM BKN050
     FM280300 35010KT P6SM BKN150=

USA.gov is the U.S. government's official web portal to all federal, state and local government web resources and services.